createdAt,value
2023-03-06T00:00:16.698Z,22.67
2023-03-06T00:03:05.192Z,25.48
2023-03-06T00:05:32.663Z,24.48
2023-03-06T00:07:59.956Z,23.05
2023-03-06T00:10:30.382Z,21.08
2023-03-06T00:13:00.530Z,24.15
2023-03-06T00:15:28.953Z,20.63
2023-03-06T00:17:57.666Z,25.63
2023-03-06T00:20:26.918Z,27.80
2023-03-06T00:22:56.107Z,24.83
2023-03-06T00:25:23.970Z,23.60
2023-03-06T00:27:51.430Z,25.55
2023-03-06T00:30:20.981Z,22.13
2023-03-06T00:32:48.566Z,25.45
2023-03-06T00:35:16.341Z,21.63
2023-03-06T00:37:45.120Z,29.35
2023-03-06T00:40:15.309Z,20.63
2023-03-06T00:42:42.459Z,30.20
2023-03-06T00:45:11.225Z,24.88
2023-03-06T00:47:38.364Z,24.75
2023-03-06T00:50:06.570Z,23.13
2023-03-06T00:52:33.808Z,24.60
2023-03-06T00:55:02.827Z,24.25
2023-03-06T00:57:30.051Z,22.50
2023-03-06T00:59:57.340Z,20.95
2023-03-06T01:02:24.665Z,24.02
2023-03-06T01:04:52.006Z,20.08
2023-03-06T01:07:19.158Z,20.08
2023-03-06T01:09:46.553Z,19.45
2023-03-06T01:12:15.168Z,19.83
2023-03-06T01:14:42.537Z,24.35
2023-03-06T01:17:09.720Z,19.70
2023-03-06T01:19:37.126Z,19.02
2023-03-06T01:22:04.128Z,18.95
2023-03-06T01:24:31.638Z,20.70
2023-03-06T01:26:58.686Z,19.90
2023-03-06T01:29:27.497Z,20.58
2023-03-06T01:31:54.482Z,19.60
2023-03-06T01:34:22.259Z,21.42
2023-03-06T01:36:49.489Z,22.67
2023-03-06T01:39:17.122Z,19.73
2023-03-06T01:41:44.253Z,23.08
2023-03-06T01:44:13.724Z,21.23
2023-03-06T01:46:42.574Z,19.13
2023-03-06T01:51:43.984Z,19.58
2023-03-06T01:54:16.074Z,18.45
2023-03-06T01:56:46.248Z,16.98
2023-03-06T01:59:14.340Z,17.15
2023-03-06T02:01:44.220Z,18.50
2023-03-06T02:04:12.139Z,18.63
2023-03-06T02:06:43.236Z,17.48
2023-03-06T02:09:12.410Z,19.60
2023-03-06T02:11:46.754Z,17.85
2023-03-06T02:14:17.243Z,18.52
2023-03-06T02:16:46.092Z,21.00
2023-03-06T02:21:48.227Z,17.98
2023-03-06T02:24:34.719Z,20.35
2023-03-06T02:27:05.474Z,18.70
2023-03-06T02:29:35.494Z,18.88
2023-03-06T02:32:02.632Z,18.25
2023-03-06T02:34:55.379Z,22.50
2023-03-06T02:37:24.198Z,17.75
2023-03-06T02:39:57.819Z,20.85
2023-03-06T02:42:28.900Z,21.27
2023-03-06T02:44:58.675Z,18.27
2023-03-06T02:47:25.997Z,19.05
2023-03-06T02:49:53.321Z,20.88
2023-03-06T02:52:20.449Z,19.25
2023-03-06T02:54:47.706Z,22.48
2023-03-06T02:57:14.906Z,20.67
2023-03-06T02:59:43.536Z,24.30
2023-03-06T03:02:11.048Z,31.20
2023-03-06T03:04:38.451Z,21.75
2023-03-06T03:07:05.459Z,18.50
2023-03-06T03:09:36.949Z,27.33
2023-03-06T03:12:05.372Z,23.80
2023-03-06T03:14:32.871Z,24.88
2023-03-06T03:17:01.877Z,23.45
2023-03-06T03:19:29.216Z,26.92
2023-03-06T03:21:56.331Z,27.60
2023-03-06T03:24:23.905Z,35.72
2023-03-06T03:26:50.969Z,37.03
2023-03-06T03:29:18.915Z,35.72
2023-03-06T03:31:45.986Z,29.50
2023-03-06T03:34:14.870Z,33.05
2023-03-06T03:36:42.301Z,35.63
2023-03-06T03:39:12.527Z,34.28
2023-03-06T03:41:39.751Z,32.70
2023-03-06T03:44:07.123Z,35.28
2023-03-06T03:46:34.223Z,45.65
2023-03-06T03:49:01.578Z,29.95
2023-03-06T03:51:30.075Z,36.42
2023-03-06T03:53:58.168Z,32.83
2023-03-06T03:56:25.965Z,30.75
2023-03-06T03:58:54.154Z,32.47
2023-03-06T04:01:21.336Z,31.38
2023-03-06T04:03:48.810Z,36.33
2023-03-06T04:06:16.084Z,32.47
2023-03-06T04:08:44.888Z,35.40
2023-03-06T04:11:12.004Z,34.45
2023-03-06T04:13:39.376Z,35.88
2023-03-06T04:16:07.302Z,33.40
2023-03-06T04:18:34.580Z,31.90
2023-03-06T04:21:01.781Z,31.90
2023-03-06T04:23:29.187Z,36.20
2023-03-06T04:25:58.027Z,30.13
2023-03-06T04:28:25.695Z,29.15
2023-03-06T04:30:52.983Z,37.75
2023-03-06T04:33:20.251Z,28.17
2023-03-06T04:35:47.589Z,32.47
2023-03-06T04:38:15.109Z,30.73
2023-03-06T04:40:44.562Z,38.28
2023-03-06T04:43:13.929Z,29.80
2023-03-06T04:45:41.077Z,26.38
2023-03-06T04:48:08.870Z,28.30
2023-03-06T04:50:37.994Z,28.38
2023-03-06T04:53:05.329Z,28.60
2023-03-06T04:55:32.385Z,34.88
2023-03-06T04:57:59.978Z,27.55
2023-03-06T05:00:31.448Z,26.83
2023-03-06T05:03:00.215Z,30.15
2023-03-06T05:05:28.191Z,28.20
2023-03-06T05:07:55.903Z,40.65
2023-03-06T05:10:23.248Z,30.23
2023-03-06T05:12:50.868Z,27.52
2023-03-06T05:15:18.626Z,33.65
2023-03-06T05:17:47.898Z,32.10
2023-03-06T05:20:16.550Z,30.90
2023-03-06T05:22:44.057Z,29.73
2023-03-06T05:25:11.842Z,25.98
2023-03-06T05:27:39.883Z,27.92
2023-03-06T05:30:08.733Z,28.58
2023-03-06T05:32:36.182Z,27.40
2023-03-06T05:35:05.997Z,24.63
2023-03-06T05:37:34.035Z,28.83
2023-03-06T05:40:03.876Z,32.85
2023-03-06T05:46:02.608Z,25.33
2023-03-06T05:48:30.205Z,21.60
2023-03-06T05:51:00.142Z,24.08
2023-03-06T05:53:30.463Z,31.88
2023-03-06T05:56:00.515Z,24.50
2023-03-06T05:58:28.347Z,52.55
2023-03-06T06:00:57.653Z,21.80
2023-03-06T06:03:25.369Z,24.98
2023-03-06T06:05:55.210Z,22.67
2023-03-06T06:08:23.913Z,23.58
2023-03-06T06:10:53.275Z,24.20
2023-03-06T06:13:20.964Z,20.67
2023-03-06T06:15:48.163Z,20.23
2023-03-06T06:18:15.659Z,21.20
2023-03-06T06:20:42.731Z,23.50
2023-03-06T06:23:11.293Z,30.88
2023-03-06T06:25:39.801Z,38.28
2023-03-06T06:28:07.364Z,35.50
2023-03-06T06:30:34.550Z,31.90
2023-03-06T06:33:01.759Z,42.95
2023-03-06T06:35:28.804Z,35.33
2023-03-06T06:37:56.246Z,35.42
2023-03-06T06:40:24.430Z,24.95
2023-03-06T06:42:54.081Z,20.80
2023-03-06T06:45:21.220Z,23.02
2023-03-06T06:47:50.160Z,17.30
2023-03-06T06:50:17.379Z,28.55
2023-03-06T06:52:44.733Z,23.40
2023-03-06T06:55:12.701Z,15.90
2023-03-06T06:57:41.340Z,17.42
2023-03-06T07:00:12.932Z,16.30
2023-03-06T07:02:40.260Z,18.60
2023-03-06T07:05:08.207Z,13.32
2023-03-06T07:07:38.044Z,15.75
2023-03-06T07:10:07.001Z,19.63
2023-03-06T07:12:35.156Z,12.70
2023-03-06T07:15:03.027Z,13.93
2023-03-06T07:17:31.996Z,15.05
2023-03-06T07:19:59.663Z,20.40
2023-03-06T07:22:26.922Z,12.82
2023-03-06T07:24:54.533Z,12.20
2023-03-06T07:27:23.764Z,12.32
2023-03-06T07:32:18.117Z,11.63
2023-03-06T07:34:46.830Z,11.07
2023-03-06T07:39:41.212Z,11.98
2023-03-06T07:42:09.350Z,13.40
2023-03-06T07:44:36.794Z,11.23
2023-03-06T07:47:05.224Z,11.90
2023-03-06T07:49:32.903Z,12.73
2023-03-06T07:52:02.480Z,18.85
2023-03-06T07:54:30.809Z,50.30
2023-03-06T07:56:58.700Z,41.20
2023-03-06T07:59:25.816Z,21.13
2023-03-06T08:01:54.397Z,40.33
2023-03-06T08:04:21.756Z,10.57
2023-03-06T08:06:48.932Z,10.55
2023-03-06T08:09:17.366Z,11.93
2023-03-06T08:11:45.355Z,10.10
2023-03-06T08:14:12.739Z,14.25
2023-03-06T08:16:40.305Z,11.05
2023-03-06T08:19:07.703Z,10.05
2023-03-06T08:21:35.175Z,12.43
2023-03-06T08:24:02.338Z,14.18
2023-03-06T08:26:32.158Z,11.63
2023-03-06T08:29:00.929Z,11.50
2023-03-06T08:31:31.510Z,15.25
2023-03-06T08:34:01.649Z,12.77
2023-03-06T08:36:29.281Z,12.40
2023-03-06T08:38:56.551Z,16.58
2023-03-06T08:41:24.622Z,12.95
2023-03-06T08:43:53.236Z,25.10
2023-03-06T08:46:23.370Z,10.65
2023-03-06T08:48:50.567Z,19.35
2023-03-06T08:51:18.830Z,17.38
2023-03-06T08:53:46.495Z,20.48
2023-03-06T08:56:18.854Z,10.95
2023-03-06T08:58:46.459Z,11.18
2023-03-06T09:01:17.610Z,12.63
2023-03-06T09:03:44.801Z,10.77
2023-03-06T09:06:12.882Z,12.77
2023-03-06T09:08:44.449Z,9.90
2023-03-06T09:11:12.924Z,11.65
2023-03-06T09:13:40.241Z,11.18
2023-03-06T09:16:08.919Z,12.45
2023-03-06T09:18:37.444Z,11.30
2023-03-06T09:21:06.273Z,10.60
2023-03-06T09:23:33.857Z,12.25
2023-03-06T09:26:02.006Z,9.50
2023-03-06T09:28:29.443Z,9.85
2023-03-06T09:30:56.831Z,13.60
2023-03-06T09:33:24.295Z,14.20
2023-03-06T09:35:54.665Z,19.85
2023-03-06T09:38:24.577Z,13.77
2023-03-06T09:41:05.089Z,12.27
2023-03-06T09:43:35.652Z,11.13
2023-03-06T09:46:14.493Z,11.55
2023-03-06T09:48:52.918Z,10.43
2023-03-06T09:51:28.981Z,13.38
2023-03-06T09:54:05.156Z,12.48
2023-03-06T09:56:36.121Z,12.55
2023-03-06T09:59:12.545Z,10.82
2023-03-06T10:01:43.941Z,18.58
2023-03-06T10:04:30.824Z,11.13
2023-03-06T10:07:05.035Z,9.18
2023-03-06T10:09:41.538Z,14.40
2023-03-06T10:12:22.057Z,9.85
2023-03-06T10:15:01.966Z,11.63
2023-03-06T10:17:35.716Z,14.18
2023-03-06T10:20:11.063Z,10.88
2023-03-06T10:22:52.590Z,10.48
2023-03-06T10:28:02.769Z,11.43
2023-03-06T10:30:38.843Z,16.38
2023-03-06T10:33:09.654Z,17.23
2023-03-06T10:35:48.443Z,17.02
2023-03-06T10:38:21.928Z,13.30
2023-03-06T10:41:04.241Z,11.70
2023-03-06T10:43:34.041Z,8.65
2023-03-06T10:46:03.859Z,11.82
2023-03-06T10:48:40.888Z,7.97
2023-03-06T10:51:27.420Z,10.25
2023-03-06T10:53:58.775Z,12.63
2023-03-06T10:56:28.552Z,11.20
2023-03-06T10:59:07.391Z,14.40
2023-03-06T11:01:34.953Z,8.95
2023-03-06T11:04:17.064Z,9.45
2023-03-06T11:06:44.701Z,8.85
2023-03-06T11:09:22.828Z,9.77
2023-03-06T11:11:50.792Z,11.05
2023-03-06T11:14:20.923Z,12.40
2023-03-06T11:16:53.389Z,12.70
2023-03-06T11:19:24.141Z,12.05
2023-03-06T11:22:02.464Z,9.30
2023-03-06T11:24:37.551Z,10.18
2023-03-06T11:27:20.176Z,8.20
2023-03-06T11:29:50.321Z,8.48
2023-03-06T11:32:23.156Z,9.70
2023-03-06T11:34:54.800Z,10.98
2023-03-06T11:37:29.885Z,12.38
2023-03-06T11:40:06.467Z,8.93
2023-03-06T11:42:39.982Z,11.43
2023-03-06T11:45:21.429Z,11.85
2023-03-06T11:47:54.433Z,9.43
2023-03-06T11:50:27.628Z,9.50
2023-03-06T11:52:57.762Z,11.32
2023-03-06T11:55:39.234Z,8.32
2023-03-06T11:58:48.035Z,7.93
2023-03-06T12:01:24.376Z,9.00
2023-03-06T12:04:07.076Z,11.00
2023-03-06T12:06:45.987Z,12.20
2023-03-06T12:09:24.435Z,10.75
2023-03-06T12:14:41.048Z,10.32
2023-03-06T12:21:26.588Z,9.05
2023-03-06T12:24:51.925Z,8.70
2023-03-06T12:27:31.606Z,9.70
2023-03-06T12:30:15.512Z,8.00
2023-03-06T12:32:52.328Z,19.67
2023-03-06T12:35:39.824Z,12.32
2023-03-06T12:38:20.504Z,10.63
2023-03-06T12:41:03.136Z,9.38
2023-03-06T12:44:05.561Z,9.93
2023-03-06T12:46:38.429Z,10.02
2023-03-06T12:49:11.195Z,12.43
2023-03-06T12:51:40.495Z,7.70
2023-03-06T12:54:10.647Z,6.53
2023-03-06T12:56:39.800Z,10.52
2023-03-06T13:02:17.917Z,10.65
2023-03-06T13:04:50.655Z,7.63
2023-03-06T13:07:53.088Z,10.05
2023-03-06T13:10:25.687Z,7.15
2023-03-06T13:12:56.079Z,9.50
2023-03-06T13:15:42.642Z,13.32
2023-03-06T13:18:56.199Z,15.30
2023-03-06T13:21:46.779Z,12.77
2023-03-06T13:24:21.441Z,15.07
2023-03-06T13:26:53.057Z,11.73
2023-03-06T13:30:04.811Z,17.17
2023-03-06T13:32:35.170Z,14.55
2023-03-06T13:35:36.721Z,10.05
2023-03-06T13:38:04.464Z,15.05
2023-03-06T13:40:35.520Z,13.57
2023-03-06T13:43:40.733Z,11.15
2023-03-06T13:46:24.906Z,16.08
2023-03-06T13:49:11.953Z,14.13
2023-03-06T13:51:40.866Z,12.80
2023-03-06T13:54:28.396Z,25.85
2023-03-06T13:57:16.473Z,12.95
2023-03-06T14:00:11.675Z,9.57
2023-03-06T14:02:58.698Z,15.30
2023-03-06T14:05:41.197Z,12.88
2023-03-06T14:08:12.570Z,12.38
2023-03-06T14:10:40.663Z,15.43
2023-03-06T14:13:15.934Z,16.85
2023-03-06T14:15:45.992Z,19.58
2023-03-06T14:18:20.302Z,12.38
2023-03-06T14:20:54.837Z,15.73
2023-03-06T14:23:28.598Z,16.85
2023-03-06T14:26:02.868Z,34.35
2023-03-06T14:28:31.144Z,16.50
2023-03-06T14:31:01.300Z,8.98
2023-03-06T14:33:36.982Z,11.95
2023-03-06T14:36:10.260Z,14.00
2023-03-06T14:38:45.226Z,12.55
2023-03-06T14:41:14.141Z,12.05
2023-03-06T14:43:41.412Z,17.73
2023-03-06T14:46:19.317Z,12.43
2023-03-06T14:48:48.411Z,10.50
2023-03-06T14:53:48.626Z,11.80
2023-03-06T14:56:18.897Z,17.98
2023-03-06T14:58:53.739Z,11.35
2023-03-06T15:01:31.475Z,9.15
2023-03-06T15:04:00.803Z,12.13
2023-03-06T15:09:02.746Z,13.85
2023-03-06T15:11:51.196Z,13.55
2023-03-06T15:14:20.643Z,11.15
2023-03-06T15:16:47.865Z,14.45
2023-03-06T15:19:19.464Z,15.95
2023-03-06T15:21:50.255Z,18.67
2023-03-06T15:24:32.579Z,14.63
2023-03-06T15:27:02.761Z,12.18
2023-03-06T15:29:30.514Z,12.55
2023-03-06T15:32:13.564Z,16.88
2023-03-06T15:34:41.082Z,15.35
2023-03-06T15:37:27.572Z,11.20
2023-03-06T15:40:06.628Z,24.73
2023-03-06T15:42:35.204Z,32.17
2023-03-06T15:45:12.657Z,15.50
2023-03-06T15:47:40.410Z,18.75
2023-03-06T15:50:14.578Z,25.17
2023-03-06T15:52:43.959Z,32.33
2023-03-06T15:55:13.084Z,20.70
2023-03-06T16:02:54.702Z,17.27
2023-03-06T16:05:22.649Z,13.27
2023-03-06T16:07:51.838Z,15.15
2023-03-06T16:10:21.578Z,14.32
2023-03-06T16:12:51.721Z,23.30
2023-03-06T16:15:25.344Z,13.63
2023-03-06T16:17:52.479Z,18.15
2023-03-06T16:20:21.654Z,12.85
2023-03-06T16:22:49.919Z,14.90
2023-03-06T16:25:18.781Z,14.02
2023-03-06T16:27:55.392Z,24.02
2023-03-06T16:30:24.211Z,15.68
2023-03-06T16:32:51.399Z,22.92
2023-03-06T16:35:18.901Z,16.55
2023-03-06T16:37:48.370Z,22.60
2023-03-06T16:40:22.165Z,26.77
2023-03-06T16:42:50.462Z,30.77
2023-03-06T16:45:19.824Z,21.48
2023-03-06T16:52:51.714Z,21.75
2023-03-06T16:55:20.439Z,22.10
2023-03-06T16:57:47.880Z,30.10
2023-03-06T17:00:17.175Z,25.58
2023-03-06T17:05:12.243Z,18.52
2023-03-06T17:07:39.552Z,18.77
2023-03-06T17:10:09.537Z,24.50
2023-03-06T17:12:38.332Z,21.08
2023-03-06T17:15:07.688Z,20.67
2023-03-06T17:20:02.852Z,30.45
2023-03-06T17:22:33.197Z,34.00
2023-03-06T17:25:01.035Z,31.35
2023-03-06T17:27:28.369Z,24.83
2023-03-06T17:29:58.128Z,23.17
2023-03-06T17:32:26.944Z,22.27
2023-03-06T17:34:54.735Z,23.75
2023-03-06T17:37:22.205Z,20.20
2023-03-06T17:39:49.878Z,20.20
2023-03-06T17:42:17.207Z,19.13
2023-03-06T17:44:44.670Z,24.15
2023-03-06T17:47:13.204Z,16.95
2023-03-06T17:49:40.577Z,16.33
2023-03-06T17:52:07.905Z,21.83
2023-03-06T17:54:36.047Z,18.00
2023-03-06T17:57:05.359Z,27.05
2023-03-06T17:59:34.389Z,15.50
2023-03-06T18:02:02.116Z,23.13
2023-03-06T18:04:31.269Z,16.10
2023-03-06T18:06:58.591Z,26.92
2023-03-06T18:09:26.525Z,23.73
2023-03-06T18:11:53.701Z,22.42
2023-03-06T18:14:21.068Z,18.75
2023-03-06T18:16:48.426Z,16.98
2023-03-06T18:19:16.576Z,17.63
2023-03-06T18:21:47.396Z,21.05
2023-03-06T18:24:14.810Z,19.98
2023-03-06T18:26:44.647Z,24.67
2023-03-06T18:29:12.112Z,24.92
2023-03-06T18:31:40.939Z,21.05
2023-03-06T18:34:11.002Z,19.17
2023-03-06T18:36:39.122Z,17.65
2023-03-06T18:39:09.622Z,23.33
2023-03-06T18:41:37.286Z,18.73
2023-03-06T18:44:05.441Z,16.40
2023-03-06T18:46:35.204Z,19.23
2023-03-06T18:49:02.949Z,19.48
2023-03-06T18:51:30.801Z,18.38
2023-03-06T18:53:58.871Z,20.93
2023-03-06T18:56:27.738Z,25.27
2023-03-06T18:58:55.852Z,19.48
2023-03-06T19:01:23.276Z,20.02
2023-03-06T19:03:55.144Z,20.48
2023-03-06T19:06:22.138Z,20.60
2023-03-06T19:08:49.614Z,19.30
2023-03-06T19:11:18.135Z,20.08
2023-03-06T19:13:46.973Z,18.73
2023-03-06T19:16:18.524Z,20.75
2023-03-06T19:18:45.871Z,17.20
2023-03-06T19:21:15.493Z,22.25
2023-03-06T19:23:43.114Z,17.92
2023-03-06T19:26:11.127Z,24.10
2023-03-06T19:28:40.917Z,28.00
2023-03-06T19:31:11.845Z,17.70
2023-03-06T19:33:40.097Z,20.38
2023-03-06T19:36:09.412Z,18.80
2023-03-06T19:38:37.393Z,20.52
2023-03-06T19:41:05.103Z,21.73
2023-03-06T19:43:32.506Z,25.10
2023-03-06T19:46:01.025Z,22.75
2023-03-06T19:48:29.928Z,21.65
2023-03-06T19:50:56.891Z,26.67
2023-03-06T19:53:26.105Z,23.63
2023-03-06T19:55:53.145Z,24.88
2023-03-06T19:58:25.909Z,23.27
2023-03-06T20:00:55.864Z,30.00
2023-03-06T20:03:23.256Z,23.15
2023-03-06T20:05:52.069Z,27.30
2023-03-06T20:08:19.550Z,25.05
2023-03-06T20:10:46.686Z,22.77
2023-03-06T20:13:14.174Z,20.55
2023-03-06T20:15:41.617Z,25.38
2023-03-06T20:18:09.217Z,22.08
2023-03-06T20:20:39.185Z,21.55
2023-03-06T20:23:08.181Z,25.88
2023-03-06T20:25:35.989Z,19.17
2023-03-06T20:28:03.845Z,24.38
2023-03-06T20:30:37.695Z,25.15
2023-03-06T20:33:05.476Z,21.08
2023-03-06T20:35:32.651Z,18.95
2023-03-06T20:38:01.826Z,15.90
2023-03-06T20:40:30.473Z,23.73
2023-03-06T20:43:00.721Z,18.83
2023-03-06T20:45:27.819Z,18.60
2023-03-06T20:47:57.156Z,21.10
2023-03-06T20:52:54.269Z,14.82
2023-03-06T20:55:21.695Z,15.57
2023-03-06T20:57:52.320Z,17.10
2023-03-06T21:00:20.997Z,18.67
2023-03-06T21:02:48.556Z,18.17
2023-03-06T21:05:15.964Z,20.65
2023-03-06T21:07:43.740Z,16.27
2023-03-06T21:10:11.865Z,13.07
2023-03-06T21:12:39.316Z,14.65
2023-03-06T21:15:08.784Z,13.25
2023-03-06T21:17:36.487Z,16.20
2023-03-06T21:20:05.712Z,16.98
2023-03-06T21:22:33.214Z,13.68
2023-03-06T21:25:02.075Z,16.33
2023-03-06T21:27:29.652Z,15.73
2023-03-06T21:29:56.837Z,15.98
2023-03-06T21:32:29.372Z,13.18
2023-03-06T21:34:56.492Z,14.55
2023-03-06T21:37:24.114Z,17.65
2023-03-06T21:39:51.272Z,14.80
2023-03-06T21:42:18.792Z,16.38
2023-03-06T21:44:45.854Z,16.30
2023-03-06T21:47:13.351Z,16.80
2023-03-06T21:49:41.730Z,17.55
2023-03-06T21:52:09.044Z,17.92
2023-03-06T21:54:36.317Z,16.55
2023-03-06T21:57:19.700Z,23.13
2023-03-06T21:59:47.088Z,18.67
2023-03-06T22:02:14.209Z,17.77
2023-03-06T22:04:44.191Z,17.95
2023-03-06T22:07:11.576Z,22.67
2023-03-06T22:09:38.902Z,17.08
2023-03-06T22:12:06.215Z,23.75
2023-03-06T22:14:34.719Z,19.92
2023-03-06T22:17:02.099Z,18.70
2023-03-06T22:19:29.904Z,20.38
2023-03-06T22:21:58.389Z,18.30
2023-03-06T22:24:25.770Z,18.30
2023-03-06T22:26:52.735Z,21.77
2023-03-06T22:29:20.061Z,17.80
2023-03-06T22:31:47.184Z,17.33
2023-03-06T22:34:14.508Z,15.55
2023-03-06T22:36:43.108Z,17.65
2023-03-06T22:39:13.046Z,16.65
2023-03-06T22:41:40.636Z,17.95
2023-03-06T22:44:08.063Z,16.98
2023-03-06T22:46:35.587Z,16.08
2023-03-06T22:49:03.334Z,13.10
2023-03-06T22:51:30.764Z,14.82
2023-03-06T22:53:58.296Z,15.55
2023-03-06T22:56:27.130Z,15.63
2023-03-06T22:58:54.457Z,15.82
2023-03-06T23:01:23.436Z,16.55
2023-03-06T23:03:52.817Z,14.52
2023-03-06T23:08:50.181Z,14.05
2023-03-06T23:13:46.610Z,12.20
2023-03-06T23:16:13.868Z,12.70
2023-03-06T23:18:41.124Z,12.93
2023-03-06T23:21:09.931Z,15.02
2023-03-06T23:26:05.757Z,12.73
2023-03-06T23:28:33.549Z,12.48
2023-03-06T23:31:07.121Z,16.10
2023-03-06T23:33:34.779Z,13.45
2023-03-06T23:36:02.825Z,12.25
2023-03-06T23:38:30.460Z,11.70
2023-03-06T23:41:01.745Z,10.55
2023-03-06T23:43:29.134Z,13.57
2023-03-06T23:45:56.780Z,15.63
2023-03-06T23:48:26.741Z,12.05
2023-03-06T23:50:54.133Z,18.52
2023-03-06T23:53:21.864Z,12.98
2023-03-06T23:55:50.250Z,11.90
2023-03-06T23:58:19.522Z,16.25
